Time;durP1;ratioP1;P1;durP2;ratioP2;P2;SDS_P1;SDS_P2;PMS_P1;PMS_P2;Temp;Humidity;BMP_temperature;BMP_pressure;BME280_temperature;BME280_humidity;BME280_pressure;Samples;Min_cycle;Max_cycle;Signal;HPM_P1;HPM_P2
2023/07/29 00:01:32;;;;;;;10.57;8.73;;;19.40;99.90;;;;;;5092941;28;20543;-86
2023/07/29 00:03:58;;;;;;;11.43;9.03;;;19.40;99.90;;;;;;5092855;28;20051;-85
2023/07/29 00:06:24;;;;;;;13.27;9.60;;;19.40;99.90;;;;;;5093050;28;20048;-84
2023/07/29 00:08:50;;;;;;;13.47;9.63;;;19.40;99.90;;;;;;5076007;28;20452;-85
2023/07/29 00:11:15;;;;;;;11.30;9.97;;;19.30;99.90;;;;;;5075997;28;20504;-86
2023/07/29 00:13:41;;;;;;;11.87;10.23;;;19.30;99.90;;;;;;5058584;28;20051;-86
2023/07/29 00:16:07;;;;;;;12.13;10.10;;;19.30;99.90;;;;;;5076015;28;20040;-85
2023/07/29 00:18:32;;;;;;;12.20;9.43;;;19.30;99.90;;;;;;5059040;28;20044;-87
2023/07/29 00:20:58;;;;;;;11.93;10.23;;;19.30;99.90;;;;;;5075929;28;20044;-86
2023/07/29 00:23:24;;;;;;;13.50;10.07;;;19.30;99.90;;;;;;5075788;28;20047;-86
2023/07/29 00:25:50;;;;;;;12.23;10.93;;;19.30;99.90;;;;;;5075616;28;20040;-85
2023/07/29 00:28:15;;;;;;;13.90;11.20;;;19.20;99.90;;;;;;5092774;28;20480;-85
2023/07/29 00:30:41;;;;;;;12.03;9.80;;;19.30;99.90;;;;;;5091568;28;20048;-86
2023/07/29 00:33:07;;;;;;;12.27;10.27;;;19.30;99.90;;;;;;5075838;28;20468;-86
2023/07/29 00:35:34;;;;;;;14.43;10.90;;;19.20;99.90;;;;;;5075493;28;20133;-86
2023/07/29 00:38:00;;;;;;;13.47;10.03;;;19.20;99.90;;;;;;5075723;28;20052;-85
2023/07/29 00:40:28;;;;;;;12.37;9.97;;;19.20;99.90;;;;;;5058954;28;20079;-86
2023/07/29 00:42:54;;;;;;;13.50;11.17;;;19.20;99.90;;;;;;5075403;28;20048;-86
2023/07/29 00:45:20;;;;;;;13.07;11.00;;;19.20;99.90;;;;;;5092242;28;20040;-86
2023/07/29 00:47:46;;;;;;;12.27;10.87;;;19.20;99.90;;;;;;5058938;28;20079;-86
2023/07/29 00:50:13;;;;;;;12.10;10.13;;;19.20;99.90;;;;;;5075538;28;20136;-86
2023/07/29 00:52:39;;;;;;;12.97;10.83;;;19.20;99.90;;;;;;5091166;28;20036;-86
2023/07/29 00:55:06;;;;;;;12.07;10.60;;;19.20;99.90;;;;;;5075735;28;20135;-86
2023/07/29 00:57:33;;;;;;;14.40;11.77;;;19.10;99.90;;;;;;5075625;28;20434;-86
2023/07/29 01:00:00;;;;;;;14.63;11.13;;;19.20;99.90;;;;;;5093149;28;20083;-86
2023/07/29 01:02:26;;;;;;;11.77;10.50;;;19.10;99.90;;;;;;5058742;28;20058;-85
2023/07/29 01:04:58;;;;;;;14.03;10.00;;;19.10;99.90;;;;;;5092092;28;20058;-86
2023/07/29 01:07:37;;;;;;;11.37;10.17;;;19.10;99.90;;;;;;5092259;28;20044;-86
2023/07/29 01:10:06;;;;;;;14.83;10.67;;;19.10;99.90;;;;;;5075594;28;20127;-86
2023/07/29 01:12:57;;;;;;;12.17;10.47;;;19.00;99.90;;;;;;5092159;28;20083;-86
2023/07/29 01:15:33;;;;;;;11.70;10.50;;;19.00;99.90;;;;;;5092084;28;20214;-84
2023/07/29 01:18:08;;;;;;;14.13;10.90;;;19.00;99.90;;;;;;5075043;28;20052;-86
2023/07/29 01:20:38;;;;;;;12.33;10.53;;;18.90;99.90;;;;;;5092264;28;20044;-86
2023/07/29 01:23:04;;;;;;;14.73;10.57;;;18.80;99.90;;;;;;5096743;28;20040;-86
2023/07/29 01:25:30;;;;;;;12.10;10.80;;;18.80;99.90;;;;;;5095863;28;20403;-85
2023/07/29 01:27:56;;;;;;;15.77;11.37;;;18.80;99.90;;;;;;5078984;28;20087;-86
2023/07/29 01:30:29;;;;;;;13.60;10.33;;;18.80;99.90;;;;;;5077774;28;20138;-85
2023/07/29 01:32:58;;;;;;;12.13;10.33;;;18.70;99.90;;;;;;5095791;28;20051;-86
2023/07/29 01:35:34;;;;;;;13.30;10.77;;;18.70;99.90;;;;;;5096029;28;20114;-85
2023/07/29 01:38:05;;;;;;;11.63;10.43;;;18.70;99.90;;;;;;5095709;28;20131;-85
2023/07/29 01:40:32;;;;;;;13.37;10.20;;;18.70;99.90;;;;;;5095800;28;20044;-85
2023/07/29 01:43:00;;;;;;;13.17;10.63;;;18.60;99.90;;;;;;5095498;28;20047;-85
2023/07/29 01:45:26;;;;;;;11.97;10.60;;;18.60;99.90;;;;;;5095887;28;20083;-86
2023/07/29 01:47:52;;;;;;;13.30;11.17;;;18.60;99.90;;;;;;5078671;28;20075;-86
2023/07/29 01:50:18;;;;;;;14.17;11.33;;;18.50;99.90;;;;;;5095509;28;20048;-86
2023/07/29 01:52:43;;;;;;;14.07;10.20;;;18.50;99.90;;;;;;5078655;28;20071;-86
2023/07/29 01:55:09;;;;;;;11.87;10.33;;;18.50;99.90;;;;;;5095502;28;20128;-86
2023/07/29 01:57:35;;;;;;;12.00;9.43;;;18.50;99.90;;;;;;5096701;28;20055;-85
2023/07/29 02:00:02;;;;;;;12.03;10.20;;;18.50;99.90;;;;;;5078081;28;20104;-85
2023/07/29 02:02:27;;;;;;;14.03;9.77;;;18.40;99.90;;;;;;5096421;28;20047;-85
2023/07/29 02:04:55;;;;;;;10.30;9.17;;;18.40;99.90;;;;;;5078338;28;20112;-86
2023/07/29 02:07:21;;;;;;;11.43;9.77;;;18.40;99.90;;;;;;5094995;28;20389;-86
2023/07/29 02:09:47;;;;;;;10.87;8.80;;;18.40;99.90;;;;;;5095350;28;20083;-87
2023/07/29 02:12:13;;;;;;;11.97;10.00;;;18.30;99.90;;;;;;5095143;28;20071;-85
2023/07/29 02:14:38;;;;;;;11.30;10.17;;;18.30;99.90;;;;;;5078402;28;20044;-85
2023/07/29 02:17:04;;;;;;;11.10;9.40;;;18.20;99.90;;;;;;5095079;28;20044;-85
2023/07/29 02:19:30;;;;;;;11.20;9.63;;;18.20;99.90;;;;;;5096358;28;20055;-85
2023/07/29 02:21:55;;;;;;;11.87;9.57;;;18.20;99.90;;;;;;5095952;28;20083;-85
2023/07/29 02:24:21;;;;;;;11.83;10.17;;;18.20;99.90;;;;;;5095079;28;20040;-85
2023/07/29 02:26:47;;;;;;;11.70;9.70;;;18.10;99.90;;;;;;5096106;28;20197;-85
2023/07/29 02:29:13;;;;;;;11.33;9.10;;;18.10;99.90;;;;;;5097711;28;20050;-85
2023/07/29 02:31:39;;;;;;;12.33;8.33;;;18.10;99.90;;;;;;5096222;28;20134;-84
2023/07/29 02:34:05;;;;;;;10.50;8.67;;;18.10;99.90;;;;;;5094989;28;20882;-86
2023/07/29 02:36:30;;;;;;;15.10;9.17;;;18.10;99.90;;;;;;5078232;28;20097;-85
2023/07/29 02:38:59;;;;;;;10.13;7.97;;;18.10;99.90;;;;;;5094659;28;20050;-85
2023/07/29 02:41:24;;;;;;;11.07;8.90;;;18.10;99.90;;;;;;5093918;28;20167;-85
2023/07/29 02:43:50;;;;;;;11.57;9.33;;;18.10;99.90;;;;;;5077714;28;20127;-86
2023/07/29 02:46:16;;;;;;;10.73;8.90;;;18.10;99.90;;;;;;5044819;28;20047;-86
2023/07/29 02:48:44;;;;;;;10.57;7.90;;;18.10;99.90;;;;;;5094739;28;20070;-86
2023/07/29 02:51:09;;;;;;;12.60;7.87;;;18.00;99.90;;;;;;5095331;28;20400;-86
2023/07/29 02:53:36;;;;;;;11.33;7.77;;;18.00;99.90;;;;;;5094351;28;20040;-85
2023/07/29 02:56:03;;;;;;;9.77;7.37;;;18.00;99.90;;;;;;5094163;28;20121;-85
2023/07/29 02:58:29;;;;;;;12.57;7.30;;;18.00;99.90;;;;;;5094056;28;20068;-85
2023/07/29 03:01:01;;;;;;;9.70;7.30;;;17.90;99.90;;;;;;5077192;28;20131;-86
2023/07/29 03:03:27;;;;;;;10.93;7.67;;;17.90;99.90;;;;;;5094311;28;20500;-86
2023/07/29 03:06:07;;;;;;;9.40;6.87;;;17.90;99.90;;;;;;5094204;28;20107;-86
2023/07/29 03:08:34;;;;;;;9.23;6.17;;;17.90;99.90;;;;;;5094384;28;20048;-85
2023/07/29 03:11:06;;;;;;;11.23;7.30;;;17.80;99.90;;;;;;5076830;28;20051;-85
2023/07/29 03:13:31;;;;;;;9.10;6.63;;;17.90;99.90;;;;;;5077348;28;20388;-85
2023/07/29 03:16:16;;;;;;;9.47;7.13;;;17.80;99.90;;;;;;5093892;28;20051;-85
2023/07/29 03:18:44;;;;;;;8.68;6.63;;;17.80;99.90;;;;;;5094119;28;20123;-85
2023/07/29 03:21:10;;;;;;;8.73;6.57;;;17.80;99.90;;;;;;5093699;28;20505;-86
2023/07/29 03:23:38;;;;;;;10.20;7.20;;;17.80;99.90;;;;;;5093760;28;20503;-85
2023/07/29 03:26:09;;;;;;;8.23;6.97;;;17.80;99.90;;;;;;5094531;28;20522;-86
2023/07/29 03:28:37;;;;;;;9.30;6.67;;;17.80;99.90;;;;;;5094100;28;20117;-86
2023/07/29 03:31:03;;;;;;;10.63;6.87;;;17.80;99.90;;;;;;5093405;28;20434;-86
2023/07/29 03:33:29;;;;;;;8.37;6.27;;;17.80;99.90;;;;;;5076825;28;20056;-85
2023/07/29 03:35:55;;;;;;;8.87;6.33;;;17.70;99.90;;;;;;5093631;28;20052;-86
2023/07/29 03:38:21;;;;;;;9.73;6.57;;;17.70;99.90;;;;;;5093586;28;20575;-86
2023/07/29 03:40:46;;;;;;;10.67;6.40;;;17.70;99.90;;;;;;5094627;28;20048;-85
2023/07/29 03:43:12;;;;;;;9.07;6.73;;;17.60;99.90;;;;;;5093394;28;20086;-86
2023/07/29 03:45:40;;;;;;;12.17;6.50;;;17.70;99.90;;;;;;5093494;28;20040;-86
2023/07/29 03:48:06;;;;;;;10.23;6.03;;;17.70;99.90;;;;;;5094344;28;20229;-86
2023/07/29 03:50:37;;;;;;;8.20;6.23;;;17.60;99.90;;;;;;5094768;28;20391;-86
2023/07/29 03:53:05;;;;;;;12.73;7.23;;;17.70;99.90;;;;;;5094433;28;20391;-87
2023/07/29 03:55:32;;;;;;;8.60;6.60;;;17.70;99.90;;;;;;5094921;28;20436;-86
2023/07/29 03:57:59;;;;;;;10.83;6.67;;;17.70;99.90;;;;;;5094310;28;20101;-86
2023/07/29 04:00:25;;;;;;;9.00;5.90;;;17.60;99.90;;;;;;5093703;28;20052;-86
2023/07/29 04:02:51;;;;;;;10.53;7.23;;;17.60;99.90;;;;;;5093921;28;20492;-86
2023/07/29 04:05:17;;;;;;;9.83;6.27;;;17.60;99.90;;;;;;5059775;28;20044;-86
2023/07/29 04:07:43;;;;;;;10.20;6.27;;;17.60;99.90;;;;;;5076154;28;20062;-86
2023/07/29 04:10:09;;;;;;;11.30;6.80;;;17.60;99.90;;;;;;5092937;28;20065;-86
2023/07/29 04:12:35;;;;;;;8.93;7.03;;;17.60;99.90;;;;;;5076229;28;20515;-86
2023/07/29 04:15:01;;;;;;;11.00;6.33;;;17.60;99.90;;;;;;5075873;28;20040;-86
2023/07/29 04:17:27;;;;;;;8.33;6.10;;;17.60;99.90;;;;;;5092887;28;20044;-86
2023/07/29 04:19:52;;;;;;;10.47;6.07;;;17.60;99.90;;;;;;5075923;28;20040;-86
2023/07/29 04:22:18;;;;;;;8.70;6.53;;;17.60;99.90;;;;;;5093637;28;20048;-86
2023/07/29 04:24:44;;;;;;;8.43;6.53;;;17.60;99.90;;;;;;5075810;28;20044;-86
2023/07/29 04:27:09;;;;;;;8.67;5.80;;;17.60;99.90;;;;;;5092383;28;20059;-86
2023/07/29 04:29:36;;;;;;;8.63;6.17;;;17.70;99.90;;;;;;5092759;28;20048;-86
2023/07/29 04:32:02;;;;;;;8.27;5.80;;;17.70;99.90;;;;;;5093455;28;20063;-86
2023/07/29 04:34:28;;;;;;;13.87;6.17;;;17.70;99.90;;;;;;5076048;28;20051;-85
2023/07/29 04:36:54;;;;;;;8.77;5.70;;;17.80;99.90;;;;;;5092793;28;20044;-86
2023/07/29 04:39:20;;;;;;;8.43;5.90;;;17.80;99.90;;;;;;5092459;28;20048;-86
2023/07/29 04:41:46;;;;;;;8.07;5.37;;;17.80;99.90;;;;;;5093399;28;20410;-86
2023/07/29 04:44:11;;;;;;;9.83;5.73;;;17.70;99.90;;;;;;5075279;28;20093;-86
2023/07/29 04:46:38;;;;;;;10.07;5.10;;;17.70;99.90;;;;;;5092603;28;20491;-85
2023/07/29 04:49:04;;;;;;;7.77;5.70;;;17.80;99.90;;;;;;5092119;28;20099;-86
2023/07/29 04:51:31;;;;;;;7.20;4.80;;;17.80;99.90;;;;;;5092361;28;20110;-85
2023/07/29 04:53:57;;;;;;;9.20;5.30;;;17.70;99.90;;;;;;5092329;28;20395;-86
2023/07/29 04:56:23;;;;;;;11.43;5.47;;;17.80;99.90;;;;;;5092239;28;20589;-85
2023/07/29 04:58:49;;;;;;;8.37;5.07;;;17.70;99.90;;;;;;5075046;28;20052;-85
2023/07/29 05:01:14;;;;;;;9.57;5.60;;;17.70;99.90;;;;;;5091836;28;20526;-86
2023/07/29 05:03:40;;;;;;;9.03;4.80;;;17.70;99.90;;;;;;5093446;28;20177;-86
2023/07/29 05:06:06;;;;;;;9.23;4.77;;;17.70;99.90;;;;;;5092036;28;20048;-86
2023/07/29 05:08:32;;;;;;;8.37;5.10;;;17.70;99.90;;;;;;5092151;28;20048;-86
2023/07/29 05:10:58;;;;;;;7.83;4.80;;;17.70;99.90;;;;;;5093259;28;20047;-86
2023/07/29 05:13:23;;;;;;;8.97;4.93;;;17.70;99.90;;;;;;5091549;28;20056;-85
2023/07/29 05:15:49;;;;;;;8.23;4.63;;;17.70;99.90;;;;;;5093000;28;20039;-86
2023/07/29 05:18:16;;;;;;;8.17;4.23;;;17.70;99.90;;;;;;5091704;28;20084;-86
2023/07/29 05:20:42;;;;;;;9.73;4.43;;;17.70;99.90;;;;;;5093060;28;20044;-86
2023/07/29 05:23:08;;;;;;;8.00;4.33;;;17.80;99.90;;;;;;5076845;28;20446;-86
2023/07/29 05:25:36;;;;;;;9.40;4.73;;;17.80;99.90;;;;;;5075830;28;20044;-85
2023/07/29 05:28:03;;;;;;;5.90;4.03;;;17.80;99.90;;;;;;5093021;28;20066;-83
2023/07/29 05:30:31;;;;;;;7.93;4.13;;;17.80;99.90;;;;;;5088297;28;20044;-85
2023/07/29 05:33:00;;;;;;;8.90;4.57;;;17.80;99.90;;;;;;5071463;28;20138;-85
2023/07/29 05:35:26;;;;;;;7.57;3.70;;;17.80;99.90;;;;;;5072416;28;20045;-85
2023/07/29 05:37:52;;;;;;;9.87;4.53;;;17.80;99.90;;;;;;5072003;28;20051;-85
2023/07/29 05:40:18;;;;;;;8.60;4.23;;;17.80;99.90;;;;;;5071463;28;20041;-85
2023/07/29 05:42:45;;;;;;;8.93;4.37;;;17.80;99.90;;;;;;5071632;28;20514;-85
2023/07/29 05:45:11;;;;;;;7.70;4.60;;;17.80;99.90;;;;;;5071402;28;20041;-86
2023/07/29 05:47:37;;;;;;;10.07;4.73;;;17.80;99.90;;;;;;5055015;28;20041;-85
2023/07/29 05:50:04;;;;;;;9.10;4.20;;;17.80;99.90;;;;;;5072795;28;20048;-85
2023/07/29 05:52:34;;;;;;;7.63;3.93;;;17.80;99.90;;;;;;5072414;28;20052;-85
2023/07/29 05:55:00;;;;;;;7.83;5.10;;;17.90;99.90;;;;;;5071632;28;20045;-85
2023/07/29 05:57:26;;;;;;;8.20;3.90;;;17.90;99.90;;;;;;5072458;28;20052;-85
2023/07/29 05:59:52;;;;;;;7.83;3.93;;;17.90;99.90;;;;;;5072562;28;20129;-85
2023/07/29 06:02:17;;;;;;;8.60;4.50;;;18.00;99.90;;;;;;5054660;28;20053;-84
2023/07/29 06:04:43;;;;;;;7.80;4.13;;;18.10;99.90;;;;;;5054604;28;20048;-85
2023/07/29 06:07:09;;;;;;;8.87;4.13;;;18.30;99.90;;;;;;5089622;28;20138;-85
2023/07/29 06:09:34;;;;;;;8.33;4.17;;;18.90;99.90;;;;;;5078312;28;20089;-85
2023/07/29 06:12:00;;;;;;;7.70;3.77;;;19.60;99.90;;;;;;5078868;28;20079;-86
2023/07/29 06:14:26;;;;;;;9.27;4.23;;;20.10;99.90;;;;;;5096028;28;20048;-86
2023/07/29 06:16:52;;;;;;;11.03;3.77;;;20.20;99.90;;;;;;5095252;28;20484;-85
2023/07/29 06:19:19;;;;;;;7.33;3.30;;;20.60;99.90;;;;;;5094894;28;20136;-86
2023/07/29 06:21:45;;;;;;;10.13;3.63;;;20.80;99.90;;;;;;5062145;28;20437;-85
2023/07/29 06:24:11;;;;;;;11.13;3.50;;;20.80;99.90;;;;;;5094699;28;20040;-84
2023/07/29 06:26:36;;;;;;;10.03;3.70;;;20.70;99.90;;;;;;5095815;28;20048;-86
2023/07/29 06:29:02;;;;;;;8.17;3.70;;;20.60;99.90;;;;;;5096301;28;20071;-85
2023/07/29 06:31:29;;;;;;;9.20;3.20;;;20.50;99.90;;;;;;5044824;28;20190;-86
2023/07/29 06:33:55;;;;;;;7.07;3.37;;;20.50;99.90;;;;;;5096179;28;20047;-85
2023/07/29 06:36:20;;;;;;;11.60;3.67;;;20.60;99.90;;;;;;5095641;28;20052;-85
2023/07/29 06:38:46;;;;;;;8.73;3.53;;;20.70;99.90;;;;;;5094116;28;20472;-85
2023/07/29 06:41:12;;;;;;;10.57;3.73;;;20.60;99.90;;;;;;5092176;28;20125;-85
2023/07/29 06:43:38;;;;;;;9.47;3.63;;;20.40;99.90;;;;;;5095384;28;20040;-83
2023/07/29 06:46:03;;;;;;;8.37;3.40;;;20.30;99.90;;;;;;5094750;28;20051;-84
2023/07/29 06:48:29;;;;;;;9.27;3.60;;;20.20;99.90;;;;;;5094354;28;20044;-83
2023/07/29 06:50:55;;;;;;;9.97;3.90;;;20.20;99.90;;;;;;5095695;28;20056;-87
2023/07/29 06:53:21;;;;;;;11.47;3.47;;;20.20;99.90;;;;;;5068886;28;20131;-87
2023/07/29 06:55:47;;;;;;;9.53;3.50;;;20.30;99.90;;;;;;5041096;28;20552;-88
2023/07/29 06:58:12;;;;;;;9.70;3.07;;;20.30;99.90;;;;;;5075390;28;20048;-88
2023/07/29 07:00:38;;;;;;;9.63;3.37;;;20.30;99.90;;;;;;5073320;28;20500;-88
2023/07/29 07:03:04;;;;;;;10.03;3.67;;;20.30;99.90;;;;;;5074192;28;20473;-80
2023/07/29 07:05:30;;;;;;;7.50;3.17;;;20.20;99.90;;;;;;5074619;28;20106;-79
2023/07/29 07:07:55;;;;;;;11.00;3.70;;;20.00;99.90;;;;;;5074997;28;20052;-80
2023/07/29 07:10:21;;;;;;;9.77;3.93;;;19.90;99.90;;;;;;5074358;28;20484;-80
2023/07/29 07:12:47;;;;;;;9.60;4.00;;;19.80;99.90;;;;;;5075064;28;20075;-80
2023/07/29 07:15:12;;;;;;;8.67;3.50;;;19.80;99.90;;;;;;5074857;28;20484;-81
2023/07/29 07:17:38;;;;;;;11.00;3.70;;;19.90;99.90;;;;;;5074586;28;20053;-81
2023/07/29 07:20:05;;;;;;;8.50;2.97;;;20.60;99.90;;;;;;5073812;28;20052;-81
2023/07/29 07:22:30;;;;;;;8.70;3.20;;;21.50;99.90;;;;;;5074416;28;20051;-81
2023/07/29 07:24:56;;;;;;;7.50;3.07;;;22.00;99.90;;;;;;5057246;28;20040;-83
2023/07/29 07:27:22;;;;;;;8.33;4.23;;;22.10;99.90;;;;;;5074252;28;20048;-83
2023/07/29 07:29:47;;;;;;;11.33;3.27;;;22.00;99.90;;;;;;5088085;28;20121;-79
2023/07/29 07:32:13;;;;;;;11.27;3.93;;;21.90;99.90;;;;;;5076853;28;20044;-81
2023/07/29 07:34:39;;;;;;;8.30;3.00;;;21.70;99.90;;;;;;5093384;28;20044;-82
2023/07/29 07:37:05;;;;;;;7.07;2.60;;;22.00;99.90;;;;;;5094631;28;20040;-80
2023/07/29 07:39:31;;;;;;;8.40;2.70;;;22.20;99.90;;;;;;5094332;28;20048;-81
2023/07/29 07:41:57;;;;;;;9.53;3.00;;;22.20;99.90;;;;;;5094495;28;20055;-81
2023/07/29 07:44:26;;;;;;;8.53;3.20;;;22.00;99.90;;;;;;5093163;28;20036;-84
2023/07/29 07:46:52;;;;;;;7.77;2.57;;;21.70;99.90;;;;;;5094457;28;20549;-81
2023/07/29 07:49:17;;;;;;;8.50;2.93;;;21.40;99.90;;;;;;5092985;28;20522;-82
2023/07/29 07:51:44;;;;;;;6.20;2.63;;;21.30;99.90;;;;;;5093191;28;20071;-81
2023/07/29 07:54:09;;;;;;;8.33;3.00;;;21.20;99.90;;;;;;5093328;28;20124;-81
2023/07/29 07:56:35;;;;;;;7.73;2.90;;;21.30;99.90;;;;;;5092862;28;20083;-80
2023/07/29 07:59:01;;;;;;;5.93;2.40;;;21.30;99.90;;;;;;5093079;28;20105;-81
2023/07/29 08:01:26;;;;;;;7.73;2.33;;;21.60;99.90;;;;;;5092875;28;20528;-79
2023/07/29 08:03:52;;;;;;;6.83;2.93;;;21.90;99.90;;;;;;5092768;28;20075;-81
2023/07/29 08:06:18;;;;;;;8.10;2.50;;;22.20;99.90;;;;;;5086702;28;20075;-83
2023/07/29 08:08:43;;;;;;;9.17;3.07;;;22.30;99.90;;;;;;5072584;28;20467;-81
2023/07/29 08:11:09;;;;;;;10.40;2.70;;;22.50;99.90;;;;;;5074408;28;20053;-83
2023/07/29 08:13:35;;;;;;;6.57;2.83;;;22.60;99.90;;;;;;5093046;28;20044;-81
2023/07/29 08:16:00;;;;;;;8.73;3.10;;;22.60;99.90;;;;;;5076369;28;20044;-81
2023/07/29 08:18:26;;;;;;;7.33;2.93;;;22.40;99.90;;;;;;5085815;28;20049;-79
2023/07/29 08:21:04;;;;;;;7.00;2.57;;;22.10;99.90;;;;;;5084475;28;20040;-81
2023/07/29 08:23:31;;;;;;;6.27;2.50;;;21.90;99.90;;;;;;5076225;28;20495;-82
2023/07/29 08:26:01;;;;;;;9.00;2.63;;;21.70;99.90;;;;;;5091788;28;20053;-84
2023/07/29 08:28:33;;;;;;;6.77;2.57;;;21.60;99.90;;;;;;5091058;28;20400;-83
2023/07/29 08:30:59;;;;;;;5.20;2.10;;;21.60;99.90;;;;;;5090976;28;20040;-84
2023/07/29 08:33:25;;;;;;;8.17;2.77;;;21.50;99.90;;;;;;5091082;28;20032;-80
2023/07/29 08:35:51;;;;;;;8.07;2.50;;;21.70;99.90;;;;;;5091005;28;20093;-81
2023/07/29 08:38:17;;;;;;;6.33;2.47;;;21.80;99.90;;;;;;5091620;28;20044;-81
2023/07/29 08:41:12;;;;;;;6.93;2.70;;;21.80;99.90;;;;;;5091783;28;20051;-82
2023/07/29 08:43:43;;;;;;;4.80;1.80;;;21.70;99.90;;;;;;5086769;28;20055;-85
2023/07/29 08:46:09;;;;;;;6.63;2.27;;;21.70;99.90;;;;;;5092563;28;20083;-78
2023/07/29 08:48:42;;;;;;;6.97;2.03;;;21.70;99.90;;;;;;5092076;28;20051;-82
2023/07/29 08:51:10;;;;;;;6.60;2.20;;;21.90;99.90;;;;;;5075352;28;20052;-82
2023/07/29 08:53:40;;;;;;;9.00;2.20;;;22.20;99.90;;;;;;5091412;28;20040;-82
2023/07/29 08:56:07;;;;;;;8.03;2.57;;;22.50;99.90;;;;;;5090951;28;20399;-80
2023/07/29 08:58:33;;;;;;;7.27;2.23;;;22.60;99.90;;;;;;5092256;28;20112;-79
2023/07/29 09:00:59;;;;;;;6.40;2.40;;;22.70;99.90;;;;;;5090310;28;20127;-79
2023/07/29 09:03:25;;;;;;;5.20;2.00;;;22.80;99.90;;;;;;5092538;28;20491;-78
2023/07/29 09:05:52;;;;;;;6.40;1.90;;;22.80;99.90;;;;;;5092852;28;20079;-77
2023/07/29 09:08:17;;;;;;;8.10;1.93;;;22.70;99.90;;;;;;5092997;28;20054;-80
2023/07/29 09:10:43;;;;;;;5.73;2.10;;;22.60;99.90;;;;;;5091832;28;20052;-81
2023/07/29 09:13:09;;;;;;;6.00;2.00;;;22.50;99.90;;;;;;5092345;28;20071;-81
2023/07/29 09:15:36;;;;;;;6.87;2.03;;;22.30;99.90;;;;;;5075177;28;20074;-78
2023/07/29 09:18:20;;;;;;;8.17;2.00;;;22.20;99.90;;;;;;5091974;28;20048;-76
2023/07/29 09:20:50;;;;;;;5.20;2.23;;;22.20;99.90;;;;;;5091785;28;20064;-75
2023/07/29 09:23:16;;;;;;;6.03;2.50;;;22.30;99.90;;;;;;5092156;28;20051;-80
2023/07/29 09:25:42;;;;;;;7.40;2.00;;;22.30;99.90;;;;;;5090335;28;20040;-80
2023/07/29 09:28:13;;;;;;;7.27;1.93;;;22.30;99.90;;;;;;5091589;28;20036;-78
2023/07/29 09:30:45;;;;;;;5.77;1.90;;;22.40;99.90;;;;;;5088783;28;20040;-81
2023/07/29 09:33:11;;;;;;;5.50;2.20;;;22.40;99.90;;;;;;5091438;28;21361;-71
2023/07/29 09:35:37;;;;;;;6.53;2.13;;;22.40;99.90;;;;;;5088532;28;20127;-74
2023/07/29 09:38:05;;;;;;;6.77;2.03;;;22.50;99.90;;;;;;5090434;28;20044;-72
2023/07/29 09:40:38;;;;;;;8.03;2.53;;;22.60;99.90;;;;;;5090310;28;20563;-73
2023/07/29 09:43:06;;;;;;;6.00;2.10;;;22.60;99.90;;;;;;5089975;28;20047;-71
2023/07/29 09:45:35;;;;;;;8.60;2.50;;;22.60;99.90;;;;;;5095161;28;20044;-73
2023/07/29 09:48:01;;;;;;;7.00;2.20;;;22.50;99.90;;;;;;5093952;28;20087;-72
2023/07/29 09:50:27;;;;;;;6.27;2.60;;;22.50;99.90;;;;;;5095273;28;20040;-73
2023/07/29 09:52:58;;;;;;;4.47;1.87;;;22.60;99.90;;;;;;5093554;28;20438;-74
2023/07/29 09:55:24;;;;;;;7.50;2.47;;;22.70;99.90;;;;;;5095190;28;20040;-73
2023/07/29 09:57:57;;;;;;;7.97;2.67;;;22.90;99.90;;;;;;5094753;28;20480;-73
2023/07/29 10:00:23;;;;;;;5.93;2.40;;;23.00;99.90;;;;;;5075111;28;20055;-73
2023/07/29 10:02:49;;;;;;;6.93;2.53;;;23.00;99.90;;;;;;5093647;28;20044;-72
2023/07/29 10:05:16;;;;;;;7.00;2.47;;;22.90;99.90;;;;;;5092861;28;20076;-71
2023/07/29 10:07:41;;;;;;;7.57;1.90;;;22.70;99.90;;;;;;5092677;28;20119;-73
2023/07/29 10:10:08;;;;;;;6.83;2.33;;;22.70;99.90;;;;;;5090400;28;20120;-74
2023/07/29 10:12:35;;;;;;;7.13;2.20;;;22.80;99.90;;;;;;5070868;28;20048;-73
2023/07/29 10:15:06;;;;;;;6.63;2.33;;;23.00;99.90;;;;;;5090400;28;20480;-74
2023/07/29 10:17:36;;;;;;;4.50;1.80;;;22.90;99.90;;;;;;5094299;28;20475;-75
2023/07/29 10:20:04;;;;;;;7.23;2.57;;;22.80;99.90;;;;;;5095456;28;20392;-73
2023/07/29 10:22:36;;;;;;;7.30;2.50;;;22.60;99.90;;;;;;5096105;28;20471;-73
2023/07/29 10:25:08;;;;;;;7.47;2.30;;;22.40;99.90;;;;;;5094526;28;20100;-77
2023/07/29 10:27:43;;;;;;;10.03;2.23;;;22.20;99.90;;;;;;5094864;28;20480;-81
2023/07/29 10:30:13;;;;;;;7.88;2.30;;;22.00;99.90;;;;;;5096029;28;20126;-81
2023/07/29 10:32:46;;;;;;;10.17;3.77;;;21.80;99.90;;;;;;5094585;28;20054;-77
2023/07/29 10:35:14;;;;;;;16.33;5.00;;;21.50;99.90;;;;;;5095909;28;20475;-80
2023/07/29 10:37:41;;;;;;;9.93;3.40;;;21.20;99.90;;;;;;5095964;28;20048;-80
2023/07/29 10:40:09;;;;;;;5.87;1.97;;;20.90;99.90;;;;;;5094747;28;20051;-85
2023/07/29 10:42:35;;;;;;;6.00;1.80;;;20.60;99.90;;;;;;5094514;28;20051;-82
2023/07/29 10:45:17;;;;;;;8.50;2.47;;;20.40;99.90;;;;;;5077694;28;20044;-85
2023/07/29 10:47:43;;;;;;;7.20;2.60;;;20.20;99.90;;;;;;5078031;28;20121;-87
2023/07/29 10:50:19;;;;;;;8.33;2.77;;;20.30;99.90;;;;;;5061167;28;20090;-84
2023/07/29 10:52:50;;;;;;;9.03;2.70;;;20.50;99.90;;;;;;5094707;28;20079;-85
2023/07/29 10:55:26;;;;;;;10.00;3.00;;;20.70;99.90;;;;;;5093376;28;20055;-84
2023/07/29 10:57:54;;;;;;;7.00;3.10;;;20.80;99.90;;;;;;5095426;28;20056;-90
2023/07/29 11:00:23;;;;;;;7.83;2.77;;;20.90;99.90;;;;;;5095140;28;20052;-87
2023/07/29 11:03:09;;;;;;;8.80;2.40;;;21.00;99.90;;;;;;5094093;28;20055;-89
2023/07/29 11:05:53;;;;;;;7.43;2.60;;;21.10;99.90;;;;;;5093880;28;20484;-84
2023/07/29 11:08:27;;;;;;;5.85;2.58;;;21.20;99.90;;;;;;5095768;28;20212;-82
2023/07/29 11:11:01;;;;;;;6.32;3.00;;;21.40;99.90;;;;;;5095185;28;20047;-83
2023/07/29 11:13:32;;;;;;;7.70;2.50;;;21.40;99.90;;;;;;5094416;28;20054;-82
2023/07/29 11:15:58;;;;;;;6.50;2.30;;;21.40;99.90;;;;;;5094111;28;20044;-81
2023/07/29 11:18:32;;;;;;;5.27;2.33;;;21.30;99.90;;;;;;5095246;28;20055;-86
2023/07/29 11:20:58;;;;;;;7.50;2.70;;;21.30;99.90;;;;;;5077184;28;20543;-89
2023/07/29 11:23:36;;;;;;;7.53;2.40;;;21.20;99.90;;;;;;5095276;28;20627;-81
2023/07/29 11:26:03;;;;;;;10.70;3.00;;;21.20;99.90;;;;;;5094816;28;20101;-81
2023/07/29 11:28:28;;;;;;;5.87;2.50;;;21.20;99.90;;;;;;5094875;28;20059;-74
2023/07/29 11:30:56;;;;;;;5.20;2.70;;;21.30;99.90;;;;;;5094546;28;20055;-72
2023/07/29 11:33:27;;;;;;;6.03;2.67;;;21.20;99.90;;;;;;5094572;28;20039;-71
2023/07/29 11:35:54;;;;;;;6.00;2.63;;;21.20;99.90;;;;;;5094426;28;20062;-72
2023/07/29 11:38:21;;;;;;;5.70;2.80;;;21.20;99.90;;;;;;5094482;28;20123;-73
2023/07/29 11:41:00;;;;;;;6.10;2.53;;;21.10;99.90;;;;;;5094358;28;20132;-72
2023/07/29 11:43:27;;;;;;;7.63;2.77;;;21.00;99.90;;;;;;5094433;28;20127;-77
2023/07/29 11:45:53;;;;;;;6.50;2.80;;;20.90;99.90;;;;;;5094962;28;20052;-84
2023/07/29 11:48:31;;;;;;;5.87;2.43;;;20.90;99.90;;;;;;5102335;28;20040;-87
2023/07/29 11:50:57;;;;;;;6.40;2.63;;;21.00;99.90;;;;;;5099402;28;20071;-86
2023/07/29 11:53:27;;;;;;;6.57;2.87;;;21.10;99.90;;;;;;5105212;28;20043;-87
2023/07/29 11:55:54;;;;;;;6.13;2.60;;;21.10;99.90;;;;;;5107387;28;20051;-85
2023/07/29 11:58:20;;;;;;;5.80;2.40;;;21.00;99.90;;;;;;5102103;28;20054;-89
2023/07/29 12:00:46;;;;;;;8.87;3.20;;;21.00;99.90;;;;;;5096743;28;20457;-89
2023/07/29 12:03:13;;;;;;;7.13;2.47;;;21.00;99.90;;;;;;5081516;28;20058;-88
2023/07/29 12:05:39;;;;;;;8.07;2.80;;;21.10;99.90;;;;;;5066845;28;20048;-80
2023/07/29 12:08:05;;;;;;;7.30;2.60;;;21.20;99.90;;;;;;5096742;28;20036;-89
2023/07/29 12:10:31;;;;;;;7.23;2.20;;;21.30;99.90;;;;;;5077384;28;20553;-88
2023/07/29 12:12:57;;;;;;;6.07;2.03;;;21.30;99.90;;;;;;5094329;28;20052;-92
2023/07/29 12:15:27;;;;;;;8.60;2.50;;;21.30;99.90;;;;;;5096182;28;20047;-94
2023/07/29 12:17:56;;;;;;;5.20;2.20;;;21.40;99.90;;;;;;5093844;28;20044;-90
2023/07/29 12:20:22;;;;;;;9.80;2.33;;;21.40;99.90;;;;;;5093143;28;20475;-83
2023/07/29 12:23:01;;;;;;;6.10;2.33;;;21.50;99.90;;;;;;5093829;28;20044;-81
2023/07/29 12:25:28;;;;;;;7.03;2.67;;;21.50;99.90;;;;;;5094128;28;20051;-85
2023/07/29 12:27:53;;;;;;;5.50;1.90;;;21.50;99.90;;;;;;5093987;28;20044;-84
2023/07/29 12:30:23;;;;;;;8.20;2.63;;;21.50;99.90;;;;;;5075768;28;20052;-84
2023/07/29 12:32:48;;;;;;;6.60;2.33;;;21.50;99.90;;;;;;5094003;28;20051;-86
2023/07/29 12:35:14;;;;;;;4.87;2.10;;;21.50;99.90;;;;;;5092631;28;20052;-84
2023/07/29 12:37:42;;;;;;;5.90;2.53;;;21.50;99.90;;;;;;5076149;28;20135;-82
2023/07/29 12:40:30;;;;;;;7.13;2.33;;;21.50;99.90;;;;;;5076026;28;20070;-85
2023/07/29 12:42:56;;;;;;;4.67;2.10;;;21.60;99.90;;;;;;5078062;28;20056;-85
2023/07/29 12:45:26;;;;;;;5.13;2.07;;;21.60;99.90;;;;;;5093367;28;20036;-77